Time;durP1;ratioP1;P1;durP2;ratioP2;P2;SDS_P1;SDS_P2;PMS_P1;PMS_P2;Temp;Humidity;BMP_temperature;BMP_pressure;BME280_temperature;BME280_humidity;BME280_pressure;Samples;Min_cycle;Max_cycle;Signal;HPM_P1;HPM_P2
2022/10/22 00:01:28;;;;;;;39.47;26.20;;;;;;;9.09;93.75;98694.14;2175023;82;20992;-84
2022/10/22 00:04:29;;;;;;;35.37;26.03;;;;;;;9.11;93.63;98698.94;2171544;81;20929;-85
2022/10/22 00:07:29;;;;;;;39.23;26.00;;;;;;;9.11;93.43;98695.03;2171978;81;20937;-85
2022/10/22 00:10:29;;;;;;;38.60;25.50;;;;;;;9.15;93.46;98699.02;2171747;81;21004;-84
2022/10/22 00:13:30;;;;;;;36.53;26.27;;;;;;;9.17;93.34;98699.91;2171067;81;20933;-84
2022/10/22 00:16:30;;;;;;;37.40;25.40;;;;;;;9.20;93.21;98693.88;2170162;81;21004;-84
2022/10/22 00:19:31;;;;;;;40.57;27.13;;;;;;;9.21;93.24;98693.89;2170432;81;21448;-84
2022/10/22 00:22:31;;;;;;;43.97;26.80;;;;;;;9.25;93.23;98698.72;2169986;81;21341;-84
2022/10/22 00:25:32;;;;;;;39.13;26.13;;;;;;;9.24;93.07;98696.55;2170090;81;20993;-84
2022/10/22 00:28:32;;;;;;;40.40;27.10;;;;;;;9.27;93.09;98699.62;2170579;81;20947;-84
2022/10/22 00:31:33;;;;;;;36.27;26.93;;;;;;;9.29;92.95;98697.91;2171201;81;20976;-85
2022/10/22 00:34:33;;;;;;;45.33;26.33;;;;;;;9.30;92.91;98690.55;2172211;81;20984;-84
2022/10/22 00:37:33;;;;;;;36.83;25.40;;;;;;;9.29;92.79;98684.02;2170796;81;21312;-85
2022/10/22 00:40:34;;;;;;;36.53;26.43;;;;;;;9.32;92.87;98678.84;2170831;81;20948;-84
2022/10/22 00:43:34;;;;;;;40.73;25.07;;;;;;;9.33;92.69;98667.15;2171663;81;20957;-84
2022/10/22 00:46:34;;;;;;;42.10;26.00;;;;;;;9.35;92.70;98656.75;2171103;81;21055;-84
2022/10/22 00:49:35;;;;;;;34.50;25.03;;;;;;;9.36;92.57;98659.37;2171816;81;20929;-85
2022/10/22 00:52:35;;;;;;;40.90;24.83;;;;;;;9.37;92.53;98662.42;2171146;81;21004;-84
2022/10/22 00:55:36;;;;;;;32.70;22.93;;;;;;;9.38;92.60;98662.00;2170636;81;20968;-84
2022/10/22 00:58:36;;;;;;;31.80;22.63;;;;;;;9.33;92.42;98661.94;2170300;81;21027;-84
2022/10/22 01:01:36;;;;;;;32.03;22.37;;;;;;;9.29;92.56;98660.14;2171424;81;21015;-84
2022/10/22 01:04:37;;;;;;;31.50;22.00;;;;;;;9.23;92.43;98654.84;2171124;81;21008;-84
2022/10/22 01:07:37;;;;;;;39.00;22.87;;;;;;;9.21;92.42;98663.95;2171008;81;20973;-84
2022/10/22 01:10:38;;;;;;;33.53;22.30;;;;;;;9.20;92.10;98661.32;2172630;81;21015;-85
2022/10/22 01:13:38;;;;;;;37.77;22.47;;;;;;;9.16;92.05;98663.00;2172574;81;20941;-84
2022/10/22 01:16:38;;;;;;;28.50;20.73;;;;;;;9.10;91.89;98659.01;2171334;81;20921;-85
2022/10/22 01:19:39;;;;;;;29.70;21.60;;;;;;;9.03;91.62;98655.86;2171340;81;21328;-85
2022/10/22 01:22:39;;;;;;;32.33;22.33;;;;;;;8.88;91.70;98656.51;2172410;82;20925;-85
2022/10/22 01:25:40;;;;;;;39.13;23.30;;;;;;;8.74;91.97;98650.64;2172507;81;20972;-85
2022/10/22 01:28:40;;;;;;;32.03;21.43;;;;;;;8.60;92.00;98651.26;2171982;81;20929;-85
2022/10/22 01:31:41;;;;;;;31.60;22.27;;;;;;;8.52;92.23;98641.58;2172705;81;21004;-85
2022/10/22 01:34:41;;;;;;;35.27;21.57;;;;;;;8.43;92.41;98661.81;2172368;81;21404;-84
2022/10/22 01:37:41;;;;;;;31.80;22.30;;;;;;;8.29;92.40;98651.13;2171265;81;21352;-85
2022/10/22 01:40:42;;;;;;;30.00;22.03;;;;;;;8.17;92.72;98653.51;2172053;81;20968;-84
2022/10/22 01:43:42;;;;;;;29.97;20.67;;;;;;;8.10;92.96;98650.34;2171158;81;20968;-84
2022/10/22 01:46:43;;;;;;;29.33;20.93;;;;;;;8.01;92.73;98649.30;2170878;81;20941;-84
2022/10/22 01:49:43;;;;;;;29.77;20.63;;;;;;;7.92;92.92;98644.80;2172986;81;21017;-84
2022/10/22 01:52:44;;;;;;;29.60;20.00;;;;;;;7.84;92.91;98652.45;2172611;81;20999;-84
2022/10/22 01:55:44;;;;;;;25.07;18.50;;;;;;;7.78;92.90;98648.83;2172076;82;20941;-84
2022/10/22 01:58:44;;;;;;;24.53;19.27;;;;;;;7.68;92.63;98649.94;2170717;81;21333;-84
2022/10/22 02:01:45;;;;;;;28.87;19.70;;;;;;;7.57;92.50;98646.25;2171336;82;20996;-84
2022/10/22 02:04:45;;;;;;;28.93;19.67;;;;;;;7.49;92.88;98649.11;2172108;81;20960;-84
2022/10/22 02:07:45;;;;;;;29.87;20.83;;;;;;;7.44;93.01;98658.95;2170757;81;20969;-84
2022/10/22 02:10:46;;;;;;;29.57;20.50;;;;;;;7.35;93.17;98660.94;2172381;82;21361;-84
2022/10/22 02:13:46;;;;;;;29.53;20.10;;;;;;;7.29;93.44;98655.61;2171796;81;20913;-84
2022/10/22 02:16:47;;;;;;;31.07;20.10;;;;;;;7.27;93.84;98649.50;2170787;81;20965;-84
2022/10/22 02:19:47;;;;;;;24.80;19.40;;;;;;;7.24;94.15;98634.73;2170519;81;20937;-84
2022/10/22 02:22:47;;;;;;;27.53;19.77;;;;;;;7.26;94.13;98629.58;2171327;81;21360;-85
2022/10/22 02:25:48;;;;;;;31.50;20.40;;;;;;;7.21;93.92;98637.27;2170549;81;20953;-85
2022/10/22 02:28:48;;;;;;;29.07;18.97;;;;;;;7.18;94.06;98635.03;2170416;81;20934;-85
2022/10/22 02:31:49;;;;;;;25.20;18.57;;;;;;;7.15;93.87;98634.54;2170359;81;21028;-85
2022/10/22 02:34:49;;;;;;;27.57;19.40;;;;;;;7.10;94.05;98627.49;2172131;81;21341;-84
2022/10/22 02:37:49;;;;;;;31.67;19.37;;;;;;;7.05;93.96;98619.61;2170678;81;20941;-85
2022/10/22 02:40:50;;;;;;;29.73;19.53;;;;;;;7.00;94.10;98621.23;2171597;81;20946;-84
2022/10/22 02:43:50;;;;;;;24.27;18.67;;;;;;;6.95;94.21;98615.93;2170231;81;20956;-84
2022/10/22 02:46:51;;;;;;;25.27;17.03;;;;;;;6.90;94.19;98622.70;2169110;81;21392;-84
2022/10/22 02:49:51;;;;;;;30.03;19.70;;;;;;;6.90;94.19;98622.70;2169078;81;20953;-84
2022/10/22 02:52:52;;;;;;;23.80;18.57;;;;;;;6.85;94.19;98628.63;2169624;81;21031;-84
2022/10/22 02:55:52;;;;;;;25.67;18.43;;;;;;;6.84;94.58;98637.25;2168932;81;20952;-84
2022/10/22 02:58:52;;;;;;;27.23;19.10;;;;;;;6.84;94.60;98638.13;2170159;81;20964;-84
2022/10/22 03:01:53;;;;;;;24.90;17.87;;;;;;;6.80;94.63;98645.80;2171600;81;21487;-84
2022/10/22 03:04:53;;;;;;;28.13;17.70;;;;;;;6.76;94.59;98646.16;2172124;82;21031;-84
2022/10/22 03:07:53;;;;;;;26.60;18.13;;;;;;;6.69;94.21;98633.88;2171973;81;20960;-83
2022/10/22 03:10:54;;;;;;;24.33;17.50;;;;;;;6.64;94.35;98625.98;2171956;81;21441;-84
2022/10/22 03:13:54;;;;;;;23.73;16.67;;;;;;;6.60;94.53;98627.18;2173474;81;21044;-84
2022/10/22 03:16:55;;;;;;;23.60;17.47;;;;;;;6.54;94.18;98622.72;2173733;81;20988;-85
2022/10/22 03:19:55;;;;;;;25.03;16.47;;;;;;;6.48;94.03;98635.54;2173583;81;21403;-85
2022/10/22 03:22:56;;;;;;;24.33;16.27;;;;;;;6.46;94.32;98624.25;2173597;81;21015;-85
2022/10/22 03:25:56;;;;;;;22.33;16.00;;;;;;;6.42;94.13;98611.18;2173725;81;20941;-85
2022/10/22 03:28:56;;;;;;;27.37;17.27;;;;;;;6.35;94.20;98609.73;2173701;82;20972;-84
2022/10/22 03:31:57;;;;;;;26.00;17.83;;;;;;;6.30;94.50;98610.03;2173656;81;20989;-85
2022/10/22 03:34:57;;;;;;;23.03;16.50;;;;;;;6.29;94.58;98616.06;2173811;81;20921;-85
2022/10/22 03:37:58;;;;;;;25.90;16.97;;;;;;;6.24;94.28;98625.86;2173738;81;20925;-84
2022/10/22 03:40:58;;;;;;;31.70;16.43;;;;;;;6.25;94.74;98641.45;2173708;81;20941;-85
2022/10/22 03:43:58;;;;;;;24.47;17.27;;;;;;;6.25;94.93;98654.83;2173400;81;20917;-84
2022/10/22 03:46:59;;;;;;;23.90;16.17;;;;;;;6.31;95.27;98660.16;2172602;81;20980;-84
2022/10/22 03:49:59;;;;;;;24.03;16.03;;;;;;;6.27;94.25;98656.62;2172145;81;20901;-84
2022/10/22 03:53:00;;;;;;;21.57;15.10;;;;;;;6.25;94.26;98657.42;2172331;81;21004;-83
2022/10/22 03:56:00;;;;;;;17.23;14.73;;;;;;;6.21;93.94;98644.80;2172144;81;21614;-84
2022/10/22 03:59:00;;;;;;;24.87;16.07;;;;;;;6.20;93.96;98645.64;2171074;81;21025;-83
2022/10/22 04:02:01;;;;;;;21.40;14.97;;;;;;;6.22;94.56;98628.41;2175014;82;21071;-83
2022/10/22 04:05:01;;;;;;;18.97;14.37;;;;;;;6.29;94.87;98632.03;2168842;81;20992;-84
2022/10/22 04:08:02;;;;;;;24.07;15.70;;;;;;;6.37;95.06;98636.98;2168307;81;21004;-84
2022/10/22 04:11:02;;;;;;;23.63;15.83;;;;;;;6.46;95.43;98637.64;2168113;81;20995;-83
2022/10/22 04:14:03;;;;;;;20.03;15.77;;;;;;;6.59;95.76;98633.20;2168769;82;21029;-82
2022/10/22 04:17:03;;;;;;;22.37;14.90;;;;;;;6.66;95.50;98629.92;2168576;81;21031;-83
2022/10/22 04:20:04;;;;;;;25.60;14.60;;;;;;;6.69;95.21;98618.31;2168578;81;20964;-83
2022/10/22 04:23:04;;;;;;;23.77;14.17;;;;;;;6.67;94.60;98613.09;2168191;81;20976;-83
2022/10/22 04:26:04;;;;;;;18.17;14.37;;;;;;;6.67;94.52;98618.70;2168966;82;20925;-84
2022/10/22 04:29:05;;;;;;;21.40;13.83;;;;;;;6.68;94.50;98615.27;2168960;81;21012;-84
2022/10/22 04:32:05;;;;;;;22.40;14.00;;;;;;;6.69;94.39;98619.62;2170266;81;21052;-83
2022/10/22 04:35:06;;;;;;;15.23;13.40;;;;;;;6.72;94.39;98623.58;2170384;81;20937;-84
2022/10/22 04:38:06;;;;;;;24.27;15.10;;;;;;;6.72;94.21;98620.98;2169643;81;20965;-84
2022/10/22 04:41:06;;;;;;;18.93;14.80;;;;;;;6.73;94.25;98629.22;2170039;81;21016;-84
2022/10/22 04:44:07;;;;;;;19.87;13.73;;;;;;;6.75;94.22;98624.95;2170437;81;21363;-84
2022/10/22 04:47:07;;;;;;;25.30;15.57;;;;;;;6.79;94.10;98616.39;2169987;81;21007;-83
2022/10/22 04:50:08;;;;;;;27.00;15.50;;;;;;;9.16;100.00;98604.41;2169678;81;20976;-83
2022/10/22 04:53:08;;;;;;;19.97;14.43;;;;;;;11.74;100.00;98596.27;2169766;81;21019;-84
2022/10/22 04:56:09;;;;;;;23.53;15.97;;;;;;;13.41;99.29;98582.83;2170071;81;20941;-83
2022/10/22 04:59:09;;;;;;;17.97;12.67;;;;;;;14.55;92.02;98573.88;2170609;81;20945;-84
2022/10/22 05:02:09;;;;;;;22.62;12.75;;;;;;;14.91;82.08;98574.47;2173558;81;21009;-84
2022/10/22 05:05:10;;;;;;;18.60;12.77;;;;;;;13.27;76.36;98584.18;2174742;81;20941;-83
2022/10/22 05:08:10;;;;;;;17.07;12.60;;;;;;;11.86;76.01;98585.87;2174599;81;21019;-84
2022/10/22 05:11:12;;;;;;;26.53;19.13;;;;;;;10.81;77.13;98579.66;2173682;81;21083;-85
2022/10/22 05:14:13;;;;;;;21.20;13.80;;;;;;;10.09;78.76;98577.27;2173575;81;20991;-83
2022/10/22 05:17:13;;;;;;;22.63;13.67;;;;;;;9.60;80.43;98578.50;2172837;81;20996;-84
2022/10/22 05:20:14;;;;;;;23.23;14.67;;;;;;;9.25;81.74;98588.03;2172453;81;21020;-84
2022/10/22 05:23:14;;;;;;;16.77;13.83;;;;;;;9.02;83.08;98582.95;2172644;81;20999;-85
2022/10/22 05:26:14;;;;;;;23.20;15.30;;;;;;;8.82;84.04;98585.27;2174387;81;20949;-84
2022/10/22 05:29:15;;;;;;;21.33;15.03;;;;;;;8.67;84.93;98582.41;2175075;81;20942;-84
2022/10/22 05:32:15;;;;;;;19.60;14.93;;;;;;;8.57;85.91;98573.16;2174802;81;21016;-85
2022/10/22 05:35:16;;;;;;;21.33;14.53;;;;;;;8.49;86.50;98569.99;2174924;81;20965;-84
2022/10/22 05:38:16;;;;;;;28.60;17.80;;;;;;;8.39;86.90;98570.70;2173943;81;20996;-81
2022/10/22 05:41:17;;;;;;;25.13;17.60;;;;;;;8.27;87.48;98570.91;2173811;81;20929;-80
2022/10/22 05:44:17;;;;;;;35.73;18.97;;;;;;;8.26;87.88;98579.98;2172793;81;21468;-83
2022/10/22 05:47:17;;;;;;;25.30;17.13;;;;;;;8.23;88.17;98584.72;2172893;81;20984;-84
2022/10/22 05:50:18;;;;;;;21.87;16.30;;;;;;;8.24;88.46;98592.09;2171015;82;20968;-84
2022/10/22 05:53:18;;;;;;;19.37;15.17;;;;;;;8.23;88.58;98582.11;2171445;81;21984;-83
2022/10/22 05:56:19;;;;;;;23.93;15.13;;;;;;;8.22;88.79;98593.36;2171061;81;21004;-84
2022/10/22 05:59:19;;;;;;;24.63;15.00;;;;;;;8.21;89.05;98587.72;2171853;81;20992;-84
2022/10/22 06:02:19;;;;;;;17.60;13.63;;;;;;;8.20;89.35;98593.77;2172568;81;21016;-84
2022/10/22 06:05:20;;;;;;;21.97;15.33;;;;;;;8.19;89.48;98586.81;2173180;81;21015;-84
2022/10/22 06:08:20;;;;;;;19.10;14.53;;;;;;;8.18;89.81;98591.98;2172265;81;20967;-84
2022/10/22 06:11:21;;;;;;;21.03;15.03;;;;;;;8.17;89.95;98593.71;2171601;81;21442;-84
2022/10/22 06:14:21;;;;;;;20.17;14.60;;;;;;;8.20;90.37;98613.27;2171955;81;20996;-81
2022/10/22 06:17:21;;;;;;;21.40;15.50;;;;;;;8.30;90.54;98642.48;2171244;81;20965;-81
2022/10/22 06:20:22;;;;;;;22.77;15.50;;;;;;;8.43;90.73;98659.20;2170391;82;21470;-83
2022/10/22 06:23:23;;;;;;;26.33;16.70;;;;;;;8.53;90.72;98645.93;2170588;81;21000;-83
2022/10/22 06:26:23;;;;;;;24.77;15.17;;;;;;;8.64;90.75;98649.58;2171881;82;20948;-83
2022/10/22 06:29:24;;;;;;;20.10;15.80;;;;;;;8.71;90.83;98658.39;2172090;81;21031;-83
2022/10/22 06:32:24;;;;;;;27.87;17.23;;;;;;;8.73;90.44;98658.87;2171846;81;21051;-84
2022/10/22 06:35:25;;;;;;;20.67;15.37;;;;;;;8.82;90.43;98655.54;2172471;82;20933;-84
2022/10/22 06:38:25;;;;;;;24.63;15.80;;;;;;;8.90;90.04;98644.82;2172991;81;20968;-81
2022/10/22 06:41:25;;;;;;;22.93;15.27;;;;;;;9.05;90.24;98640.27;2171392;81;20960;-81
2022/10/22 06:44:26;;;;;;;19.90;15.37;;;;;;;9.24;90.58;98639.67;2171707;81;21340;-84
2022/10/22 06:47:26;;;;;;;23.17;15.77;;;;;;;9.46;90.73;98640.41;2171896;81;20921;-84
2022/10/22 06:50:27;;;;;;;25.27;15.03;;;;;;;9.69;90.70;98639.42;2172658;81;20941;-84
2022/10/22 06:53:27;;;;;;;16.97;15.03;;;;;;;10.00;90.36;98628.91;2172276;81;21040;-81
2022/10/22 06:56:28;;;;;;;20.10;14.20;;;;;;;10.31;89.10;98634.03;2171591;81;21003;-80
2022/10/22 06:59:28;;;;;;;23.13;14.47;;;;;;;10.63;88.13;98639.57;2170727;81;20944;-81
2022/10/22 07:02:28;;;;;;;22.77;14.63;;;;;;;10.95;87.25;98638.51;2174373;81;21016;-82
2022/10/22 07:05:29;;;;;;;20.35;13.60;;;;;;;11.32;86.00;98645.30;2169858;81;20968;-82
2022/10/22 07:08:29;;;;;;;18.42;12.85;;;;;;;11.65;83.75;98662.90;2169173;81;20972;-82
2022/10/22 07:11:29;;;;;;;18.75;13.40;;;;;;;11.94;81.65;98672.20;2169339;81;20984;-83
2022/10/22 07:14:30;;;;;;;17.77;12.82;;;;;;;12.07;81.59;98672.69;2168936;82;20960;-82
2022/10/22 07:17:30;;;;;;;16.15;12.00;;;;;;;12.09;80.82;98680.98;2168484;81;21020;-82
2022/10/22 07:20:31;;;;;;;16.65;13.18;;;;;;;12.09;80.31;98690.56;2167099;81;21008;-81
2022/10/22 07:23:31;;;;;;;19.35;12.70;;;;;;;12.18;80.21;98697.61;2167697;82;20957;-83
2022/10/22 07:26:31;;;;;;;18.77;12.63;;;;;;;12.33;79.88;98701.14;2168443;82;20988;-80
2022/10/22 07:29:32;;;;;;;25.17;12.85;;;;;;;12.44;78.47;98699.42;2168864;81;20964;-83
2022/10/22 07:32:32;;;;;;;17.65;11.70;;;;;;;12.52;78.46;98685.03;2168047;81;21059;-83
2022/10/22 07:35:33;;;;;;;20.05;12.25;;;;;;;12.58;78.37;98680.23;2169138;81;21002;-83
2022/10/22 07:38:33;;;;;;;17.87;12.93;;;;;;;12.69;77.90;98673.27;2168918;81;21403;-81
2022/10/22 07:41:33;;;;;;;16.73;11.65;;;;;;;12.80;77.55;98677.20;2168299;81;21007;-81
2022/10/22 07:44:34;;;;;;;17.30;11.50;;;;;;;12.88;76.24;98672.83;2169451;81;20972;-83
2022/10/22 07:47:34;;;;;;;15.93;11.08;;;;;;;12.97;76.29;98691.17;2169629;81;20960;-82
2022/10/22 07:50:35;;;;;;;17.55;11.00;;;;;;;12.97;76.46;98672.39;2169112;81;21369;-74
2022/10/22 07:53:35;;;;;;;15.45;11.93;;;;;;;13.09;76.60;98662.38;2166595;81;20991;-82
2022/10/22 07:56:35;;;;;;;22.02;13.08;;;;;;;13.34;76.51;98651.44;2167966;81;21004;-83
2022/10/22 07:59:36;;;;;;;14.63;12.03;;;;;;;13.77;76.66;98627.26;2168793;81;21019;-82
2022/10/22 08:02:36;;;;;;;16.35;11.88;;;;;;;14.19;75.52;98619.63;2170169;81;21051;-82
2022/10/22 08:05:38;;;;;;;16.02;12.37;;;;;;;14.47;74.56;98619.47;2170283;81;21012;-82
2022/10/22 08:08:37;;;;;;;13.25;11.38;;;;;;;14.63;73.71;98623.28;2170595;81;20992;-83
2022/10/22 08:11:38;;;;;;;15.63;10.60;;;;;;;14.70;71.69;98620.61;2170677;81;21016;-83
2022/10/22 08:14:38;;;;;;;15.55;11.03;;;;;;;14.64;72.25;98626.34;2170934;81;21004;-83
2022/10/22 08:17:38;;;;;;;19.67;11.38;;;;;;;14.68;72.28;98645.58;2170984;81;21324;-82
2022/10/22 08:20:39;;;;;;;18.05;11.65;;;;;;;14.75;72.53;98643.80;2173364;81;21012;-83
2022/10/22 08:23:39;;;;;;;18.40;10.95;;;;;;;14.81;72.15;98649.02;2173367;81;20972;-82
2022/10/22 08:26:40;;;;;;;13.88;10.43;;;;;;;14.80;71.66;98660.41;2173203;81;20921;-83
2022/10/22 08:29:40;;;;;;;14.47;11.70;;;;;;;14.89;71.12;98662.96;2173172;81;20973;-84
2022/10/22 08:32:40;;;;;;;16.10;10.75;;;;;;;14.88;70.89;98671.28;2172686;81;21063;-82
2022/10/22 08:35:41;;;;;;;14.95;11.12;;;;;;;14.98;70.98;98657.63;2172271;81;21938;-83
2022/10/22 08:38:41;;;;;;;15.03;11.05;;;;;;;15.12;70.74;98659.69;2172162;81;21012;-83
2022/10/22 08:41:43;;;;;;;12.55;10.38;;;;;;;15.26;70.60;98635.89;2160878;82;21389;-83
2022/10/22 08:44:44;;;;;;;17.30;10.38;;;;;;;15.39;70.22;98649.33;2171426;81;20980;-83
2022/10/22 08:47:44;;;;;;;17.85;11.10;;;;;;;15.55;69.80;98654.86;2171579;81;21055;-83
2022/10/22 08:50:45;;;;;;;14.93;11.15;;;;;;;15.63;69.71;98661.41;2171870;81;20929;-82
2022/10/22 08:53:45;;;;;;;13.98;10.80;;;;;;;15.57;68.96;98654.43;2172295;81;20968;-83
2022/10/22 08:56:46;;;;;;;16.30;10.85;;;;;;;15.60;69.52;98651.80;2171468;81;21356;-83
2022/10/22 08:59:46;;;;;;;14.83;10.53;;;;;;;15.56;68.45;98660.98;2171663;81;21887;-84
2022/10/22 09:02:46;;;;;;;12.85;11.12;;;;;;;15.48;69.51;98661.52;2170700;81;21488;-83
2022/10/22 09:05:47;;;;;;;15.18;10.23;;;;;;;15.46;69.91;98648.83;2171300;81;20972;-83
2022/10/22 09:08:47;;;;;;;15.30;10.80;;;;;;;15.51;69.62;98654.91;2172674;81;20972;-83
2022/10/22 09:11:48;;;;;;;19.77;10.03;;;;;;;15.43;69.85;98652.80;2173140;81;20996;-82
2022/10/22 09:14:48;;;;;;;14.58;11.20;;;;;;;15.33;69.48;98668.25;2172774;81;21406;-82
2022/10/22 09:17:48;;;;;;;12.60;10.80;;;;;;;15.23;70.08;98675.36;2173815;81;20941;-83
2022/10/22 09:20:49;;;;;;;12.98;10.00;;;;;;;15.08;69.87;98678.12;2173734;81;20970;-83
2022/10/22 09:23:49;;;;;;;19.10;11.08;;;;;;;14.97;70.33;98680.41;2172576;81;21336;-84
2022/10/22 09:26:50;;;;;;;15.75;11.28;;;;;;;14.91;70.45;98674.33;2172260;81;20975;-83
2022/10/22 09:29:54;;;;;;;22.45;10.35;;;;;;;14.96;70.79;98684.36;2171716;81;21320;-83
2022/10/22 09:32:52;;;;;;;13.70;10.45;;;;;;;15.04;70.86;98682.98;2164650;82;21023;-82
2022/10/22 09:35:53;;;;;;;15.55;10.78;;;;;;;15.11;70.84;98682.92;2171386;81;20984;-83
2022/10/22 09:38:54;;;;;;;15.10;10.55;;;;;;;15.14;70.63;98680.26;2171546;81;21008;-83
2022/10/22 09:41:54;;;;;;;15.58;11.28;;;;;;;15.14;70.78;98678.95;2172767;81;21235;-84
2022/10/22 09:44:54;;;;;;;11.93;10.30;;;;;;;15.14;70.79;98680.70;2172482;81;20961;-83
2022/10/22 09:47:55;;;;;;;13.95;9.43;;;;;;;15.13;70.85;98677.20;2171841;81;21388;-82
2022/10/22 09:50:55;;;;;;;18.87;10.30;;;;;;;15.22;70.87;98673.17;2172407;81;20984;-83
2022/10/22 09:53:55;;;;;;;18.87;10.58;;;;;;;15.30;70.79;98673.97;2172194;81;21294;-83
2022/10/22 09:56:56;;;;;;;10.85;9.68;;;;;;;15.42;70.66;98672.97;2173304;81;20937;-84
2022/10/22 09:59:56;;;;;;;12.53;9.68;;;;;;;15.45;70.33;98678.20;2172966;81;21371;-85
2022/10/22 10:02:57;;;;;;;12.23;9.45;;;;;;;15.47;70.03;98679.50;2173208;81;21055;-85
2022/10/22 10:05:57;;;;;;;16.50;9.73;;;;;;;15.48;70.06;98681.24;2173352;81;20956;-83
2022/10/22 10:09:01;;;;;;;14.75;9.93;;;;;;;15.45;70.52;98673.39;2174009;81;20918;-84
2022/10/22 10:11:59;;;;;;;12.53;10.03;;;;;;;15.45;70.17;98669.44;2173008;81;21063;-84
2022/10/22 10:14:58;;;;;;;12.58;10.13;;;;;;;15.42;70.04;98676.05;2173957;81;21289;-84
2022/10/22 10:17:59;;;;;;;13.13;10.48;;;;;;;15.37;69.93;98679.17;2173111;81;20965;-83
2022/10/22 10:20:59;;;;;;;19.25;11.25;;;;;;;15.34;70.28;98693.22;2172419;81;20941;-84
2022/10/22 10:24:00;;;;;;;14.30;11.50;;;;;;;15.33;70.63;98696.73;2172683;81;20980;-84
2022/10/22 10:27:02;;;;;;;21.30;11.35;;;;;;;15.36;70.67;98690.13;2160886;82;21001;-84
2022/10/22 10:30:02;;;;;;;20.25;13.38;;;;;;;15.34;70.87;98691.03;2172780;82;20988;-83
2022/10/22 10:33:03;;;;;;;24.32;12.00;;;;;;;15.34;70.74;98690.59;2172597;81;21045;-84
2022/10/22 10:36:03;;;;;;;21.30;11.57;;;;;;;15.38;70.88;98687.48;2172107;81;20953;-84
2022/10/22 10:39:03;;;;;;;17.40;11.10;;;;;;;15.41;70.23;98683.06;2173342;81;20953;-85
2022/10/22 10:42:04;;;;;;;19.40;11.90;;;;;;;15.36;70.07;98683.56;2172545;81;20992;-84
2022/10/22 10:45:04;;;;;;;17.98;11.90;;;;;;;15.30;70.06;98683.62;2171357;81;20984;-85
2022/10/22 10:48:05;;;;;;;23.07;12.07;;;;;;;15.23;70.29;98675.36;2171770;81;21003;-84
2022/10/22 10:51:05;;;;;;;14.65;11.95;;;;;;;15.20;70.32;98683.27;2171949;81;20972;-84
2022/10/22 10:54:06;;;;;;;19.12;12.18;;;;;;;15.13;70.68;98689.48;2171127;81;21460;-83
2022/10/22 10:57:06;;;;;;;18.00;12.82;;;;;;;15.06;70.41;98683.84;2171233;81;20969;-84
2022/10/22 11:00:06;;;;;;;16.62;13.32;;;;;;;14.99;70.71;98680.39;2170903;81;21229;-84
2022/10/22 11:03:07;;;;;;;18.80;12.73;;;;;;;14.94;70.92;98679.56;2170701;81;21092;-84
2022/10/22 11:06:07;;;;;;;17.27;13.50;;;;;;;14.91;71.25;98676.52;2169530;81;20960;-85
2022/10/22 11:09:08;;;;;;;18.45;12.82;;;;;;;14.89;71.19;98671.72;2169076;81;21022;-82
2022/10/22 11:12:08;;;;;;;18.30;13.38;;;;;;;14.81;71.34;98672.22;2169951;81;20949;-84
2022/10/22 11:15:08;;;;;;;25.52;13.03;;;;;;;14.74;71.55;98676.19;2169878;81;20973;-82
2022/10/22 11:18:09;;;;;;;16.30;12.20;;;;;;;14.71;72.10;98678.39;2170184;81;21034;-84
2022/10/22 11:21:09;;;;;;;21.30;11.97;;;;;;;14.69;72.34;98680.60;2169971;81;21003;-84
2022/10/22 11:24:10;;;;;;;17.42;13.25;;;;;;;14.65;72.55;98673.19;2169991;81;20980;-83
2022/10/22 11:27:10;;;;;;;21.68;14.58;;;;;;;14.62;72.79;98674.08;2169311;81;20960;-83
2022/10/22 11:30:11;;;;;;;27.85;16.60;;;;;;;14.59;72.94;98670.16;2169164;82;21027;-83
2022/10/22 11:33:11;;;;;;;26.05;14.75;;;;;;;14.54;73.20;98671.08;2169328;81;20988;-83
2022/10/22 11:36:11;;;;;;;19.57;13.65;;;;;;;14.52;73.89;98663.20;2169576;81;20992;-84
2022/10/22 11:39:12;;;;;;;17.50;12.55;;;;;;;14.48;73.83;98661.48;2170120;81;20980;-83
2022/10/22 11:42:12;;;;;;;21.05;13.13;;;;;;;14.41;74.45;98670.25;2170818;81;20993;-84
2022/10/22 11:45:13;;;;;;;17.23;12.63;;;;;;;14.32;74.53;98675.11;2170795;81;21344;-84
2022/10/22 11:48:15;;;;;;;22.27;14.38;;;;;;;14.22;75.09;98672.55;2171285;81;21333;-83
2022/10/22 11:51:16;;;;;;;20.10;15.58;;;;;;;14.15;75.40;98677.41;2171132;81;21359;-84
2022/10/22 11:54:17;;;;;;;23.50;14.38;;;;;;;14.13;75.53;98677.41;2171024;82;21076;-84
2022/10/22 11:57:17;;;;;;;18.57;14.15;;;;;;;14.13;75.84;98672.16;2171383;81;20945;-84
2022/10/22 12:00:18;;;;;;;21.15;15.13;;;;;;;14.13;76.06;98659.48;2171732;81;21277;-84
2022/10/22 12:03:18;;;;;;;16.97;13.53;;;;;;;14.09;76.42;98659.94;2170254;81;20988;-84
2022/10/22 12:06:19;;;;;;;19.20;14.40;;;;;;;14.05;76.80;98662.58;2171099;81;20902;-83
2022/10/22 12:09:19;;;;;;;19.42;13.78;;;;;;;13.98;77.15;98661.30;2170686;81;20996;-83
2022/10/22 12:12:19;;;;;;;20.77;13.70;;;;;;;13.92;77.59;98654.77;2170393;81;20977;-83
2022/10/22 12:15:20;;;;;;;20.82;14.55;;;;;;;13.82;77.61;98651.72;2171766;81;20972;-84
2022/10/22 12:18:23;;;;;;;22.42;15.00;;;;;;;13.75;78.30;98651.31;2170461;81;20965;-83
2022/10/22 12:21:24;;;;;;;20.77;15.17;;;;;;;13.71;78.72;98639.09;2171826;81;20933;-83
2022/10/22 12:24:24;;;;;;;23.65;16.02;;;;;;;13.66;78.97;98645.66;2170749;81;20995;-83
2022/10/22 12:27:25;;;;;;;22.22;16.15;;;;;;;13.67;79.57;98648.72;2169863;81;21344;-84
2022/10/22 12:30:25;;;;;;;23.60;14.53;;;;;;;13.64;79.47;98650.48;2170237;81;20987;-84
2022/10/22 12:33:27;;;;;;;21.97;15.68;;;;;;;13.61;79.58;98640.88;2168349;81;21016;-83
2022/10/22 12:36:26;;;;;;;20.95;16.42;;;;;;;13.66;79.57;98642.16;2168893;81;20984;-84
2022/10/22 12:39:26;;;;;;;23.73;16.97;;;;;;;13.71;79.74;98640.40;2168473;81;21021;-84
2022/10/22 12:42:27;;;;;;;24.35;17.35;;;;;;;13.77;79.99;98645.63;2169018;81;20952;-84
2022/10/22 12:45:27;;;;;;;31.50;18.25;;;;;;;13.80;79.88;98648.23;2169792;81;20961;-84
2022/10/22 12:48:28;;;;;;;27.58;18.45;;;;;;;13.79;79.76;98647.80;2171863;81;20976;-84
2022/10/22 12:51:28;;;;;;;26.37;19.75;;;;;;;13.74;79.85;98643.45;2170940;81;21055;-83
2022/10/22 12:54:28;;;;;;;28.55;20.55;;;;;;;13.63;79.77;98648.73;2171595;81;20921;-84
2022/10/22 12:57:29;;;;;;;31.62;20.75;;;;;;;13.55;80.22;98651.82;2171042;81;21345;-84
2022/10/22 13:00:29;;;;;;;32.28;22.10;;;;;;;13.46;80.14;98661.90;2171693;81;20980;-84
2022/10/22 13:03:29;;;;;;;35.28;20.92;;;;;;;13.42;80.46;98657.98;2172464;81;21056;-83
2022/10/22 13:06:30;;;;;;;37.70;21.77;;;;;;;13.42;80.47;98651.42;2169796;81;20929;-84
2022/10/22 13:09:30;;;;;;;33.08;21.85;;;;;;;13.44;80.63;98645.30;2170845;81;21329;-83
2022/10/22 13:12:31;;;;;;;32.93;21.97;;;;;;;13.53;80.51;98633.91;2170597;81;21339;-84
2022/10/22 13:15:34;;;;;;;26.37;19.90;;;;;;;13.60;80.52;98632.57;2171799;81;20969;-83
2022/10/22 13:18:31;;;;;;;29.35;20.48;;;;;;;13.64;79.92;98634.30;2171475;81;20941;-83
2022/10/22 13:21:32;;;;;;;31.20;20.88;;;;;;;13.66;80.33;98635.61;2171666;81;20917;-84
2022/10/22 13:24:37;;;;;;;34.57;22.73;;;;;;;13.57;79.90;98641.77;2170883;81;20961;-84
2022/10/22 13:27:33;;;;;;;35.55;21.95;;;;;;;13.47;80.21;98641.80;2171722;81;21304;-84
2022/10/22 13:30:33;;;;;;;31.80;21.77;;;;;;;13.42;80.68;98642.25;2170945;81;20930;-84
2022/10/22 13:33:34;;;;;;;34.88;21.70;;;;;;;13.37;80.76;98649.69;2171125;81;21013;-85
2022/10/22 13:36:34;;;;;;;36.00;21.70;;;;;;;13.33;80.88;98637.46;2172151;81;21348;-83
2022/10/22 13:39:35;;;;;;;32.33;21.33;;;;;;;13.38;81.13;98635.70;2170547;82;21356;-83
2022/10/22 13:42:35;;;;;;;30.88;22.05;;;;;;;13.41;81.32;98633.95;2170330;81;20965;-84
2022/10/22 13:45:35;;;;;;;34.43;22.20;;;;;;;13.47;81.62;98626.06;2170674;81;20889;-83
2022/10/22 13:48:36;;;;;;;30.02;21.57;;;;;;;13.48;81.72;98625.19;2171031;81;21304;-83
2022/10/22 13:51:36;;;;;;;28.85;21.33;;;;;;;13.43;81.86;98635.69;2171800;81;20961;-84
2022/10/22 13:54:36;;;;;;;28.52;21.33;;;;;;;13.37;82.10;98630.02;2171308;81;21200;-84